sensor_id;sensor_type;location;lat;lon;timestamp;P1;durP1;ratioP1;P2;durP2;ratioP2
6199;SDS011;3133;43.214;27.906;2023-07-22T00:02:19;14.97;;;9.57;;
6199;SDS011;3133;43.214;27.906;2023-07-22T00:04:47;11.70;;;8.97;;
6199;SDS011;3133;43.214;27.906;2023-07-22T00:07:14;14.10;;;8.50;;
6199;SDS011;3133;43.214;27.906;2023-07-22T00:09:41;12.70;;;8.20;;
6199;SDS011;3133;43.214;27.906;2023-07-22T00:12:09;12.50;;;8.90;;
6199;SDS011;3133;43.214;27.906;2023-07-22T00:14:38;11.97;;;9.23;;
6199;SDS011;3133;43.214;27.906;2023-07-22T00:17:07;14.07;;;8.17;;
6199;SDS011;3133;43.214;27.906;2023-07-22T00:19:34;14.33;;;8.80;;
6199;SDS011;3133;43.214;27.906;2023-07-22T00:22:01;11.50;;;9.37;;
6199;SDS011;3133;43.214;27.906;2023-07-22T00:24:28;13.90;;;8.60;;
6199;SDS011;3133;43.214;27.906;2023-07-22T00:26:55;10.60;;;8.87;;
6199;SDS011;3133;43.214;27.906;2023-07-22T00:29:22;13.60;;;8.97;;
6199;SDS011;3133;43.214;27.906;2023-07-22T00:31:49;16.17;;;10.30;;
6199;SDS011;3133;43.214;27.906;2023-07-22T00:34:17;13.93;;;8.83;;
6199;SDS011;3133;43.214;27.906;2023-07-22T00:36:44;13.00;;;9.43;;
6199;SDS011;3133;43.214;27.906;2023-07-22T00:39:13;12.97;;;9.97;;
6199;SDS011;3133;43.214;27.906;2023-07-22T00:41:40;15.60;;;10.13;;
6199;SDS011;3133;43.214;27.906;2023-07-22T00:44:09;12.73;;;9.80;;
6199;SDS011;3133;43.214;27.906;2023-07-22T00:46:36;16.53;;;9.80;;
6199;SDS011;3133;43.214;27.906;2023-07-22T00:49:04;13.90;;;9.30;;
6199;SDS011;3133;43.214;27.906;2023-07-22T00:51:34;10.70;;;8.73;;
6199;SDS011;3133;43.214;27.906;2023-07-22T00:54:01;10.80;;;8.93;;
6199;SDS011;3133;43.214;27.906;2023-07-22T00:56:29;14.93;;;9.90;;
6199;SDS011;3133;43.214;27.906;2023-07-22T00:58:59;15.97;;;9.73;;
6199;SDS011;3133;43.214;27.906;2023-07-22T01:01:27;15.83;;;9.80;;
6199;SDS011;3133;43.214;27.906;2023-07-22T01:03:54;14.27;;;9.67;;
6199;SDS011;3133;43.214;27.906;2023-07-22T01:06:22;12.67;;;9.10;;
6199;SDS011;3133;43.214;27.906;2023-07-22T01:08:52;9.17;;;8.27;;
6199;SDS011;3133;43.214;27.906;2023-07-22T01:11:19;9.87;;;8.87;;
6199;SDS011;3133;43.214;27.906;2023-07-22T01:13:46;12.13;;;9.17;;
6199;SDS011;3133;43.214;27.906;2023-07-22T01:16:13;14.20;;;9.93;;
6199;SDS011;3133;43.214;27.906;2023-07-22T01:18:40;11.90;;;9.30;;
6199;SDS011;3133;43.214;27.906;2023-07-22T01:21:06;11.27;;;9.33;;
6199;SDS011;3133;43.214;27.906;2023-07-22T01:23:36;12.70;;;8.70;;
6199;SDS011;3133;43.214;27.906;2023-07-22T01:26:04;14.90;;;9.67;;
6199;SDS011;3133;43.214;27.906;2023-07-22T01:28:34;15.67;;;9.30;;
6199;SDS011;3133;43.214;27.906;2023-07-22T01:31:01;12.47;;;8.73;;
6199;SDS011;3133;43.214;27.906;2023-07-22T01:33:30;23.23;;;10.03;;
6199;SDS011;3133;43.214;27.906;2023-07-22T01:35:57;19.80;;;9.90;;
6199;SDS011;3133;43.214;27.906;2023-07-22T01:38:24;11.87;;;8.93;;
6199;SDS011;3133;43.214;27.906;2023-07-22T01:40:52;16.27;;;10.80;;
6199;SDS011;3133;43.214;27.906;2023-07-22T01:43:19;15.30;;;9.53;;
6199;SDS011;3133;43.214;27.906;2023-07-22T01:45:46;12.20;;;9.40;;
6199;SDS011;3133;43.214;27.906;2023-07-22T01:48:13;13.50;;;9.63;;
6199;SDS011;3133;43.214;27.906;2023-07-22T01:50:40;11.93;;;9.67;;
6199;SDS011;3133;43.214;27.906;2023-07-22T01:53:07;12.00;;;9.10;;
6199;SDS011;3133;43.214;27.906;2023-07-22T01:55:33;12.73;;;9.40;;
6199;SDS011;3133;43.214;27.906;2023-07-22T01:58:02;11.00;;;8.83;;
6199;SDS011;3133;43.214;27.906;2023-07-22T02:00:29;13.20;;;9.60;;
6199;SDS011;3133;43.214;27.906;2023-07-22T02:02:57;15.67;;;9.80;;
6199;SDS011;3133;43.214;27.906;2023-07-22T02:05:26;14.70;;;9.23;;
6199;SDS011;3133;43.214;27.906;2023-07-22T02:07:55;13.77;;;9.97;;
6199;SDS011;3133;43.214;27.906;2023-07-22T02:10:22;13.50;;;9.43;;
6199;SDS011;3133;43.214;27.906;2023-07-22T02:12:49;11.00;;;9.03;;
6199;SDS011;3133;43.214;27.906;2023-07-22T02:15:18;10.13;;;9.03;;
6199;SDS011;3133;43.214;27.906;2023-07-22T02:17:47;16.67;;;9.77;;
6199;SDS011;3133;43.214;27.906;2023-07-22T02:20:14;12.53;;;9.33;;
6199;SDS011;3133;43.214;27.906;2023-07-22T02:22:42;12.40;;;9.70;;
6199;SDS011;3133;43.214;27.906;2023-07-22T02:25:09;12.40;;;9.40;;
6199;SDS011;3133;43.214;27.906;2023-07-22T02:27:36;16.20;;;8.77;;
6199;SDS011;3133;43.214;27.906;2023-07-22T02:30:05;15.23;;;9.07;;
6199;SDS011;3133;43.214;27.906;2023-07-22T02:32:36;11.83;;;9.00;;
6199;SDS011;3133;43.214;27.906;2023-07-22T02:35:05;15.17;;;10.07;;
6199;SDS011;3133;43.214;27.906;2023-07-22T02:37:33;13.93;;;9.63;;
6199;SDS011;3133;43.214;27.906;2023-07-22T02:40:00;11.13;;;9.73;;
6199;SDS011;3133;43.214;27.906;2023-07-22T02:42:33;12.60;;;8.80;;
6199;SDS011;3133;43.214;27.906;2023-07-22T02:45:00;14.80;;;9.47;;
6199;SDS011;3133;43.214;27.906;2023-07-22T02:47:28;19.23;;;9.73;;
6199;SDS011;3133;43.214;27.906;2023-07-22T02:49:56;12.73;;;10.13;;
6199;SDS011;3133;43.214;27.906;2023-07-22T02:52:23;11.67;;;9.40;;
6199;SDS011;3133;43.214;27.906;2023-07-22T02:55:06;11.97;;;10.20;;
6199;SDS011;3133;43.214;27.906;2023-07-22T02:57:36;14.50;;;9.87;;
6199;SDS011;3133;43.214;27.906;2023-07-22T03:00:03;12.03;;;9.37;;
6199;SDS011;3133;43.214;27.906;2023-07-22T03:02:33;13.33;;;9.33;;
6199;SDS011;3133;43.214;27.906;2023-07-22T03:05:02;11.37;;;9.67;;
6199;SDS011;3133;43.214;27.906;2023-07-22T03:07:32;11.37;;;9.00;;
6199;SDS011;3133;43.214;27.906;2023-07-22T03:10:01;13.00;;;9.70;;
6199;SDS011;3133;43.214;27.906;2023-07-22T03:12:28;12.80;;;9.53;;
6199;SDS011;3133;43.214;27.906;2023-07-22T03:14:56;13.37;;;9.60;;
6199;SDS011;3133;43.214;27.906;2023-07-22T03:17:23;11.83;;;8.90;;
6199;SDS011;3133;43.214;27.906;2023-07-22T03:19:51;15.87;;;9.43;;
6199;SDS011;3133;43.214;27.906;2023-07-22T03:22:19;14.67;;;9.80;;
6199;SDS011;3133;43.214;27.906;2023-07-22T03:24:46;10.07;;;9.03;;
6199;SDS011;3133;43.214;27.906;2023-07-22T03:27:13;15.67;;;10.37;;
6199;SDS011;3133;43.214;27.906;2023-07-22T03:29:45;13.23;;;9.03;;
6199;SDS011;3133;43.214;27.906;2023-07-22T03:32:18;12.60;;;9.33;;
6199;SDS011;3133;43.214;27.906;2023-07-22T03:34:46;11.97;;;9.40;;
6199;SDS011;3133;43.214;27.906;2023-07-22T03:37:13;16.50;;;10.20;;
6199;SDS011;3133;43.214;27.906;2023-07-22T03:39:42;10.50;;;9.40;;
6199;SDS011;3133;43.214;27.906;2023-07-22T03:42:10;12.80;;;9.47;;
6199;SDS011;3133;43.214;27.906;2023-07-22T03:44:37;14.37;;;9.67;;
6199;SDS011;3133;43.214;27.906;2023-07-22T03:47:06;14.93;;;10.73;;
6199;SDS011;3133;43.214;27.906;2023-07-22T03:49:35;11.27;;;9.13;;
6199;SDS011;3133;43.214;27.906;2023-07-22T03:52:01;12.33;;;9.77;;
6199;SDS011;3133;43.214;27.906;2023-07-22T03:54:28;13.07;;;8.97;;
6199;SDS011;3133;43.214;27.906;2023-07-22T03:56:57;12.13;;;9.57;;
6199;SDS011;3133;43.214;27.906;2023-07-22T03:59:25;17.07;;;9.47;;
6199;SDS011;3133;43.214;27.906;2023-07-22T04:01:53;12.03;;;9.13;;
6199;SDS011;3133;43.214;27.906;2023-07-22T04:04:20;15.37;;;9.87;;
6199;SDS011;3133;43.214;27.906;2023-07-22T04:06:48;14.80;;;9.30;;
6199;SDS011;3133;43.214;27.906;2023-07-22T04:09:16;9.60;;;8.57;;
6199;SDS011;3133;43.214;27.906;2023-07-22T04:11:42;12.17;;;9.37;;
6199;SDS011;3133;43.214;27.906;2023-07-22T04:14:11;10.70;;;8.77;;
6199;SDS011;3133;43.214;27.906;2023-07-22T04:16:39;12.03;;;9.13;;
6199;SDS011;3133;43.214;27.906;2023-07-22T04:19:05;11.63;;;9.30;;
6199;SDS011;3133;43.214;27.906;2023-07-22T04:21:32;9.07;;;8.03;;
6199;SDS011;3133;43.214;27.906;2023-07-22T04:24:00;16.23;;;10.00;;
6199;SDS011;3133;43.214;27.906;2023-07-22T04:26:27;18.17;;;8.43;;
6199;SDS011;3133;43.214;27.906;2023-07-22T04:28:57;11.27;;;8.23;;
6199;SDS011;3133;43.214;27.906;2023-07-22T04:31:26;10.77;;;8.83;;
6199;SDS011;3133;43.214;27.906;2023-07-22T04:33:53;10.93;;;8.33;;
6199;SDS011;3133;43.214;27.906;2023-07-22T04:36:36;11.40;;;8.27;;
6199;SDS011;3133;43.214;27.906;2023-07-22T04:39:04;13.83;;;8.67;;
6199;SDS011;3133;43.214;27.906;2023-07-22T04:41:40;13.13;;;10.17;;
6199;SDS011;3133;43.214;27.906;2023-07-22T04:44:10;9.53;;;8.43;;
6199;SDS011;3133;43.214;27.906;2023-07-22T04:46:41;16.50;;;8.13;;
6199;SDS011;3133;43.214;27.906;2023-07-22T04:49:12;10.67;;;7.80;;
6199;SDS011;3133;43.214;27.906;2023-07-22T04:51:43;10.47;;;6.90;;
6199;SDS011;3133;43.214;27.906;2023-07-22T04:54:17;13.40;;;8.33;;
6199;SDS011;3133;43.214;27.906;2023-07-22T04:56:47;14.10;;;8.40;;
6199;SDS011;3133;43.214;27.906;2023-07-22T04:59:17;12.00;;;7.23;;
6199;SDS011;3133;43.214;27.906;2023-07-22T05:01:46;13.13;;;7.43;;
6199;SDS011;3133;43.214;27.906;2023-07-22T05:04:13;15.07;;;8.07;;
6199;SDS011;3133;43.214;27.906;2023-07-22T05:06:44;8.00;;;7.17;;
6199;SDS011;3133;43.214;27.906;2023-07-22T05:09:28;9.20;;;6.67;;
6199;SDS011;3133;43.214;27.906;2023-07-22T05:11:55;10.20;;;7.33;;
6199;SDS011;3133;43.214;27.906;2023-07-22T05:14:22;8.40;;;7.50;;
6199;SDS011;3133;43.214;27.906;2023-07-22T05:17:16;8.43;;;7.13;;
6199;SDS011;3133;43.214;27.906;2023-07-22T05:19:44;8.10;;;6.80;;
6199;SDS011;3133;43.214;27.906;2023-07-22T05:22:10;11.80;;;7.33;;
6199;SDS011;3133;43.214;27.906;2023-07-22T05:24:37;11.07;;;7.97;;
6199;SDS011;3133;43.214;27.906;2023-07-22T05:27:04;10.60;;;7.30;;
6199;SDS011;3133;43.214;27.906;2023-07-22T05:29:31;12.30;;;7.53;;
6199;SDS011;3133;43.214;27.906;2023-07-22T05:31:58;13.43;;;6.90;;
6199;SDS011;3133;43.214;27.906;2023-07-22T05:34:26;10.17;;;7.03;;
6199;SDS011;3133;43.214;27.906;2023-07-22T05:36:54;9.07;;;6.30;;
6199;SDS011;3133;43.214;27.906;2023-07-22T05:39:23;8.00;;;7.20;;
6199;SDS011;3133;43.214;27.906;2023-07-22T05:41:51;11.47;;;6.40;;
6199;SDS011;3133;43.214;27.906;2023-07-22T05:44:18;9.77;;;6.53;;
6199;SDS011;3133;43.214;27.906;2023-07-22T05:46:46;7.30;;;6.47;;
6199;SDS011;3133;43.214;27.906;2023-07-22T05:49:13;9.37;;;6.67;;
6199;SDS011;3133;43.214;27.906;2023-07-22T05:51:44;8.33;;;6.57;;
6199;SDS011;3133;43.214;27.906;2023-07-22T05:54:12;14.83;;;6.33;;
6199;SDS011;3133;43.214;27.906;2023-07-22T05:56:40;8.97;;;6.30;;
6199;SDS011;3133;43.214;27.906;2023-07-22T05:59:07;8.17;;;6.30;;
6199;SDS011;3133;43.214;27.906;2023-07-22T06:01:37;10.30;;;7.13;;
6199;SDS011;3133;43.214;27.906;2023-07-22T06:04:14;9.90;;;6.10;;
6199;SDS011;3133;43.214;27.906;2023-07-22T06:06:45;10.87;;;6.57;;
6199;SDS011;3133;43.214;27.906;2023-07-22T06:09:19;16.57;;;6.93;;
6199;SDS011;3133;43.214;27.906;2023-07-22T06:11:47;11.10;;;6.10;;
6199;SDS011;3133;43.214;27.906;2023-07-22T06:14:16;7.50;;;5.90;;
6199;SDS011;3133;43.214;27.906;2023-07-22T06:16:44;8.97;;;5.50;;
6199;SDS011;3133;43.214;27.906;2023-07-22T06:19:11;9.23;;;5.67;;
6199;SDS011;3133;43.214;27.906;2023-07-22T06:21:39;9.27;;;6.63;;
6199;SDS011;3133;43.214;27.906;2023-07-22T06:24:08;7.17;;;6.20;;
6199;SDS011;3133;43.214;27.906;2023-07-22T06:26:35;11.27;;;6.50;;
6199;SDS011;3133;43.214;27.906;2023-07-22T06:29:03;7.60;;;6.00;;
6199;SDS011;3133;43.214;27.906;2023-07-22T06:31:32;8.77;;;5.73;;
6199;SDS011;3133;43.214;27.906;2023-07-22T06:34:05;11.03;;;6.80;;
6199;SDS011;3133;43.214;27.906;2023-07-22T06:36:33;10.97;;;6.60;;
6199;SDS011;3133;43.214;27.906;2023-07-22T06:39:00;6.40;;;5.47;;
6199;SDS011;3133;43.214;27.906;2023-07-22T06:41:30;10.60;;;6.30;;
6199;SDS011;3133;43.214;27.906;2023-07-22T06:43:59;6.70;;;6.00;;
6199;SDS011;3133;43.214;27.906;2023-07-22T06:46:40;7.33;;;6.50;;
6199;SDS011;3133;43.214;27.906;2023-07-22T06:49:15;10.10;;;6.33;;
6199;SDS011;3133;43.214;27.906;2023-07-22T06:52:00;10.37;;;6.47;;
6199;SDS011;3133;43.214;27.906;2023-07-22T06:54:31;8.50;;;6.40;;
6199;SDS011;3133;43.214;27.906;2023-07-22T06:57:01;8.80;;;6.27;;
6199;SDS011;3133;43.214;27.906;2023-07-22T06:59:31;8.00;;;6.27;;
6199;SDS011;3133;43.214;27.906;2023-07-22T07:01:58;8.50;;;6.27;;
6199;SDS011;3133;43.214;27.906;2023-07-22T07:04:25;8.47;;;6.70;;
6199;SDS011;3133;43.214;27.906;2023-07-22T07:06:52;8.57;;;6.23;;
6199;SDS011;3133;43.214;27.906;2023-07-22T07:09:19;10.23;;;6.57;;
6199;SDS011;3133;43.214;27.906;2023-07-22T07:11:46;15.27;;;7.23;;
6199;SDS011;3133;43.214;27.906;2023-07-22T07:14:14;8.93;;;6.00;;
6199;SDS011;3133;43.214;27.906;2023-07-22T07:16:44;8.60;;;6.10;;
6199;SDS011;3133;43.214;27.906;2023-07-22T07:19:12;8.40;;;6.47;;
6199;SDS011;3133;43.214;27.906;2023-07-22T07:21:40;10.93;;;7.17;;
6199;SDS011;3133;43.214;27.906;2023-07-22T07:24:07;9.03;;;6.37;;
6199;SDS011;3133;43.214;27.906;2023-07-22T07:26:34;10.27;;;7.10;;
6199;SDS011;3133;43.214;27.906;2023-07-22T07:29:02;7.53;;;6.23;;
6199;SDS011;3133;43.214;27.906;2023-07-22T07:31:30;19.47;;;7.57;;
6199;SDS011;3133;43.214;27.906;2023-07-22T07:34:00;10.00;;;7.60;;
6199;SDS011;3133;43.214;27.906;2023-07-22T07:36:27;10.50;;;7.17;;
6199;SDS011;3133;43.214;27.906;2023-07-22T07:39:02;22.93;;;7.57;;
6199;SDS011;3133;43.214;27.906;2023-07-22T07:41:30;8.40;;;6.63;;
6199;SDS011;3133;43.214;27.906;2023-07-22T07:43:57;10.77;;;6.70;;
6199;SDS011;3133;43.214;27.906;2023-07-22T07:46:26;10.50;;;7.00;;
6199;SDS011;3133;43.214;27.906;2023-07-22T07:49:00;8.03;;;6.27;;
6199;SDS011;3133;43.214;27.906;2023-07-22T07:51:29;12.57;;;7.33;;
6199;SDS011;3133;43.214;27.906;2023-07-22T07:53:58;15.60;;;8.40;;
6199;SDS011;3133;43.214;27.906;2023-07-22T07:56:31;7.17;;;5.63;;
6199;SDS011;3133;43.214;27.906;2023-07-22T07:58:58;9.13;;;6.37;;
6199;SDS011;3133;43.214;27.906;2023-07-22T08:01:28;8.97;;;6.73;;
6199;SDS011;3133;43.214;27.906;2023-07-22T08:03:57;9.77;;;7.07;;
6199;SDS011;3133;43.214;27.906;2023-07-22T08:06:26;10.27;;;6.77;;
6199;SDS011;3133;43.214;27.906;2023-07-22T08:08:52;9.33;;;7.30;;
6199;SDS011;3133;43.214;27.906;2023-07-22T08:11:19;7.73;;;6.57;;
6199;SDS011;3133;43.214;27.906;2023-07-22T08:14:01;10.23;;;6.60;;
6199;SDS011;3133;43.214;27.906;2023-07-22T08:16:28;8.90;;;5.97;;
6199;SDS011;3133;43.214;27.906;2023-07-22T08:19:18;8.57;;;6.60;;
6199;SDS011;3133;43.214;27.906;2023-07-22T08:22:01;7.03;;;6.17;;
6199;SDS011;3133;43.214;27.906;2023-07-22T08:24:38;12.27;;;6.57;;
6199;SDS011;3133;43.214;27.906;2023-07-22T08:27:20;9.30;;;6.47;;
6199;SDS011;3133;43.214;27.906;2023-07-22T08:29:49;8.07;;;6.47;;
6199;SDS011;3133;43.214;27.906;2023-07-22T08:32:16;9.07;;;6.53;;
6199;SDS011;3133;43.214;27.906;2023-07-22T08:34:58;9.90;;;6.53;;
6199;SDS011;3133;43.214;27.906;2023-07-22T08:37:26;10.73;;;6.07;;
6199;SDS011;3133;43.214;27.906;2023-07-22T08:39:53;10.30;;;6.23;;
6199;SDS011;3133;43.214;27.906;2023-07-22T08:42:19;6.73;;;6.03;;
6199;SDS011;3133;43.214;27.906;2023-07-22T08:44:50;10.13;;;6.27;;
6199;SDS011;3133;43.214;27.906;2023-07-22T08:47:23;9.80;;;6.90;;
6199;SDS011;3133;43.214;27.906;2023-07-22T08:49:55;9.00;;;6.63;;
6199;SDS011;3133;43.214;27.906;2023-07-22T08:52:27;7.73;;;6.37;;
6199;SDS011;3133;43.214;27.906;2023-07-22T08:54:55;8.53;;;6.63;;
6199;SDS011;3133;43.214;27.906;2023-07-22T08:57:24;8.40;;;6.67;;
6199;SDS011;3133;43.214;27.906;2023-07-22T08:59:53;11.40;;;7.37;;
6199;SDS011;3133;43.214;27.906;2023-07-22T09:02:21;11.13;;;6.13;;
6199;SDS011;3133;43.214;27.906;2023-07-22T09:04:50;8.17;;;6.33;;
6199;SDS011;3133;43.214;27.906;2023-07-22T09:07:21;10.17;;;6.27;;
6199;SDS011;3133;43.214;27.906;2023-07-22T09:09:54;9.50;;;6.30;;
6199;SDS011;3133;43.214;27.906;2023-07-22T09:12:24;8.87;;;6.73;;
6199;SDS011;3133;43.214;27.906;2023-07-22T09:17:49;8.70;;;6.30;;
6199;SDS011;3133;43.214;27.906;2023-07-22T09:20:16;9.13;;;6.03;;
6199;SDS011;3133;43.214;27.906;2023-07-22T09:23:08;7.60;;;6.10;;
6199;SDS011;3133;43.214;27.906;2023-07-22T09:25:35;9.73;;;6.10;;
6199;SDS011;3133;43.214;27.906;2023-07-22T09:28:03;10.50;;;6.23;;
6199;SDS011;3133;43.214;27.906;2023-07-22T09:30:32;7.93;;;6.10;;
6199;SDS011;3133;43.214;27.906;2023-07-22T09:33:02;9.57;;;6.70;;
6199;SDS011;3133;43.214;27.906;2023-07-22T09:35:51;9.30;;;6.13;;
6199;SDS011;3133;43.214;27.906;2023-07-22T09:38:25;17.07;;;6.47;;
6199;SDS011;3133;43.214;27.906;2023-07-22T09:40:52;9.23;;;6.60;;
6199;SDS011;3133;43.214;27.906;2023-07-22T09:43:21;7.40;;;6.17;;
6199;SDS011;3133;43.214;27.906;2023-07-22T09:45:52;9.77;;;6.40;;
6199;SDS011;3133;43.214;27.906;2023-07-22T09:48:21;12.37;;;7.40;;
6199;SDS011;3133;43.214;27.906;2023-07-22T09:50:56;10.13;;;7.07;;
6199;SDS011;3133;43.214;27.906;2023-07-22T09:53:25;9.47;;;6.33;;
6199;SDS011;3133;43.214;27.906;2023-07-22T09:55:53;6.73;;;6.00;;
6199;SDS011;3133;43.214;27.906;2023-07-22T09:58:32;14.70;;;6.57;;
6199;SDS011;3133;43.214;27.906;2023-07-22T10:01:08;10.10;;;6.60;;
6199;SDS011;3133;43.214;27.906;2023-07-22T10:03:47;7.67;;;6.63;;
6199;SDS011;3133;43.214;27.906;2023-07-22T10:06:33;8.30;;;6.67;;
6199;SDS011;3133;43.214;27.906;2023-07-22T10:09:06;12.47;;;6.83;;
6199;SDS011;3133;43.214;27.906;2023-07-22T10:11:50;11.23;;;6.70;;
6199;SDS011;3133;43.214;27.906;2023-07-22T10:14:17;11.50;;;6.90;;
6199;SDS011;3133;43.214;27.906;2023-07-22T10:16:46;8.70;;;6.33;;
6199;SDS011;3133;43.214;27.906;2023-07-22T10:19:14;11.40;;;6.97;;
6199;SDS011;3133;43.214;27.906;2023-07-22T10:21:42;7.53;;;6.63;;
6199;SDS011;3133;43.214;27.906;2023-07-22T10:24:17;10.23;;;7.07;;
6199;SDS011;3133;43.214;27.906;2023-07-22T10:26:46;10.43;;;5.90;;
6199;SDS011;3133;43.214;27.906;2023-07-22T10:29:16;8.93;;;6.60;;
6199;SDS011;3133;43.214;27.906;2023-07-22T10:31:45;8.13;;;6.83;;
6199;SDS011;3133;43.214;27.906;2023-07-22T10:34:20;10.37;;;7.10;;
6199;SDS011;3133;43.214;27.906;2023-07-22T10:36:51;8.07;;;6.57;;
6199;SDS011;3133;43.214;27.906;2023-07-22T10:42:17;7.97;;;6.57;;
6199;SDS011;3133;43.214;27.906;2023-07-22T10:44:51;10.07;;;7.00;;
6199;SDS011;3133;43.214;27.906;2023-07-22T10:50:12;7.73;;;6.73;;
6199;SDS011;3133;43.214;27.906;2023-07-22T10:52:42;14.60;;;6.77;;
6199;SDS011;3133;43.214;27.906;2023-07-22T10:58:55;6.67;;;5.83;;
6199;SDS011;3133;43.214;27.906;2023-07-22T11:01:31;12.97;;;6.50;;
6199;SDS011;3133;43.214;27.906;2023-07-22T11:04:13;10.97;;;6.50;;
6199;SDS011;3133;43.214;27.906;2023-07-22T11:06:53;9.97;;;6.63;;
6199;SDS011;3133;43.214;27.906;2023-07-22T11:09:40;5.87;;;4.93;;
6199;SDS011;3133;43.214;27.906;2023-07-22T11:18:09;7.30;;;5.80;;
6199;SDS011;3133;43.214;27.906;2023-07-22T11:20:53;11.03;;;6.70;;
6199;SDS011;3133;43.214;27.906;2023-07-22T11:23:27;16.90;;;6.60;;
6199;SDS011;3133;43.214;27.906;2023-07-22T11:25:55;9.60;;;5.50;;
6199;SDS011;3133;43.214;27.906;2023-07-22T11:28:49;9.37;;;6.70;;
6199;SDS011;3133;43.214;27.906;2023-07-22T11:31:31;8.20;;;6.13;;
6199;SDS011;3133;43.214;27.906;2023-07-22T11:33:59;7.40;;;6.53;;
6199;SDS011;3133;43.214;27.906;2023-07-22T11:36:27;7.20;;;5.77;;
6199;SDS011;3133;43.214;27.906;2023-07-22T11:39:00;10.00;;;6.43;;
6199;SDS011;3133;43.214;27.906;2023-07-22T11:41:29;10.87;;;5.97;;
6199;SDS011;3133;43.214;27.906;2023-07-22T11:44:07;8.50;;;6.63;;
6199;SDS011;3133;43.214;27.906;2023-07-22T11:46:59;7.23;;;5.93;;
6199;SDS011;3133;43.214;27.906;2023-07-22T11:49:41;8.10;;;5.67;;
6199;SDS011;3133;43.214;27.906;2023-07-22T11:52:16;10.37;;;6.13;;
6199;SDS011;3133;43.214;27.906;2023-07-22T11:54:48;8.23;;;6.40;;
6199;SDS011;3133;43.214;27.906;2023-07-22T11:57:17;11.07;;;6.33;;
6199;SDS011;3133;43.214;27.906;2023-07-22T12:00:00;7.97;;;6.10;;
6199;SDS011;3133;43.214;27.906;2023-07-22T12:02:27;9.30;;;6.33;;
6199;SDS011;3133;43.214;27.906;2023-07-22T12:04:57;18.37;;;6.27;;
6199;SDS011;3133;43.214;27.906;2023-07-22T12:07:58;9.27;;;5.90;;
6199;SDS011;3133;43.214;27.906;2023-07-22T12:10:25;9.20;;;5.97;;
6199;SDS011;3133;43.214;27.906;2023-07-22T12:12:53;9.67;;;6.50;;
6199;SDS011;3133;43.214;27.906;2023-07-22T12:15:23;11.63;;;6.70;;
6199;SDS011;3133;43.214;27.906;2023-07-22T12:17:58;7.60;;;5.00;;
6199;SDS011;3133;43.214;27.906;2023-07-22T12:23:40;8.03;;;5.93;;
6199;SDS011;3133;43.214;27.906;2023-07-22T12:26:08;6.77;;;6.07;;
6199;SDS011;3133;43.214;27.906;2023-07-22T12:28:35;13.40;;;6.70;;
6199;SDS011;3133;43.214;27.906;2023-07-22T12:31:04;8.60;;;5.80;;
6199;SDS011;3133;43.214;27.906;2023-07-22T12:33:30;11.60;;;6.70;;
6199;SDS011;3133;43.214;27.906;2023-07-22T12:35:57;11.70;;;6.90;;
6199;SDS011;3133;43.214;27.906;2023-07-22T12:38:24;12.63;;;6.07;;
6199;SDS011;3133;43.214;27.906;2023-07-22T12:40:51;5.33;;;4.83;;
6199;SDS011;3133;43.214;27.906;2023-07-22T12:43:18;8.20;;;6.53;;
6199;SDS011;3133;43.214;27.906;2023-07-22T12:45:45;9.70;;;6.17;;
6199;SDS011;3133;43.214;27.906;2023-07-22T12:48:13;7.70;;;5.97;;
6199;SDS011;3133;43.214;27.906;2023-07-22T12:50:42;8.73;;;6.17;;
6199;SDS011;3133;43.214;27.906;2023-07-22T12:53:09;7.73;;;5.60;;
6199;SDS011;3133;43.214;27.906;2023-07-22T12:55:36;9.87;;;6.70;;
6199;SDS011;3133;43.214;27.906;2023-07-22T12:58:03;9.13;;;5.87;;
6199;SDS011;3133;43.214;27.906;2023-07-22T13:00:30;7.13;;;6.20;;
6199;SDS011;3133;43.214;27.906;2023-07-22T13:02:59;7.63;;;6.20;;
6199;SDS011;3133;43.214;27.906;2023-07-22T13:08:28;9.37;;;5.50;;
6199;SDS011;3133;43.214;27.906;2023-07-22T13:11:03;15.07;;;6.50;;
6199;SDS011;3133;43.214;27.906;2023-07-22T13:13:36;10.20;;;4.80;;
6199;SDS011;3133;43.214;27.906;2023-07-22T13:16:19;8.73;;;6.23;;
6199;SDS011;3133;43.214;27.906;2023-07-22T13:18:55;10.63;;;6.17;;
6199;SDS011;3133;43.214;27.906;2023-07-22T13:21:40;9.20;;;5.07;;
6199;SDS011;3133;43.214;27.906;2023-07-22T13:24:08;8.93;;;6.20;;
6199;SDS011;3133;43.214;27.906;2023-07-22T13:26:36;10.60;;;5.77;;
6199;SDS011;3133;43.214;27.906;2023-07-22T13:29:04;7.80;;;5.83;;
6199;SDS011;3133;43.214;27.906;2023-07-22T13:31:35;7.57;;;6.07;;
6199;SDS011;3133;43.214;27.906;2023-07-22T13:34:02;9.10;;;4.97;;
6199;SDS011;3133;43.214;27.906;2023-07-22T13:36:30;7.20;;;5.13;;
6199;SDS011;3133;43.214;27.906;2023-07-22T13:38:58;8.47;;;5.77;;
6199;SDS011;3133;43.214;27.906;2023-07-22T13:41:27;16.43;;;5.90;;
6199;SDS011;3133;43.214;27.906;2023-07-22T13:43:55;8.87;;;6.00;;
6199;SDS011;3133;43.214;27.906;2023-07-22T13:46:23;11.97;;;5.60;;
6199;SDS011;3133;43.214;27.906;2023-07-22T13:48:50;10.90;;;4.40;;
6199;SDS011;3133;43.214;27.906;2023-07-22T13:51:18;5.33;;;4.83;;
6199;SDS011;3133;43.214;27.906;2023-07-22T13:53:45;10.97;;;5.70;;
6199;SDS011;3133;43.214;27.906;2023-07-22T13:56:13;22.17;;;6.40;;
6199;SDS011;3133;43.214;27.906;2023-07-22T13:58:44;8.47;;;6.17;;
6199;SDS011;3133;43.214;27.906;2023-07-22T14:01:12;12.87;;;5.80;;
6199;SDS011;3133;43.214;27.906;2023-07-22T14:03:39;13.77;;;5.27;;
6199;SDS011;3133;43.214;27.906;2023-07-22T14:06:08;10.03;;;5.53;;
6199;SDS011;3133;43.214;27.906;2023-07-22T14:08:36;16.00;;;6.20;;
6199;SDS011;3133;43.214;27.906;2023-07-22T14:11:08;7.87;;;5.87;;
6199;SDS011;3133;43.214;27.906;2023-07-22T14:13:35;10.90;;;5.83;;
6199;SDS011;3133;43.214;27.906;2023-07-22T14:16:04;9.30;;;5.67;;
6199;SDS011;3133;43.214;27.906;2023-07-22T14:18:33;6.43;;;5.50;;
6199;SDS011;3133;43.214;27.906;2023-07-22T14:21:00;6.60;;;4.73;;
6199;SDS011;3133;43.214;27.906;2023-07-22T14:23:29;10.60;;;5.87;;
6199;SDS011;3133;43.214;27.906;2023-07-22T14:25:56;10.27;;;5.90;;
6199;SDS011;3133;43.214;27.906;2023-07-22T14:28:23;7.90;;;5.40;;
6199;SDS011;3133;43.214;27.906;2023-07-22T14:30:50;6.53;;;5.10;;
6199;SDS011;3133;43.214;27.906;2023-07-22T14:33:18;5.53;;;4.83;;
6199;SDS011;3133;43.214;27.906;2023-07-22T14:35:45;7.93;;;4.93;;
6199;SDS011;3133;43.214;27.906;2023-07-22T14:38:12;6.67;;;4.73;;
6199;SDS011;3133;43.214;27.906;2023-07-22T14:40:40;12.97;;;5.77;;
6199;SDS011;3133;43.214;27.906;2023-07-22T14:43:09;8.00;;;5.67;;
6199;SDS011;3133;43.214;27.906;2023-07-22T14:45:42;6.80;;;5.40;;
6199;SDS011;3133;43.214;27.906;2023-07-22T14:48:11;8.47;;;5.23;;
6199;SDS011;3133;43.214;27.906;2023-07-22T14:50:41;10.20;;;5.00;;
6199;SDS011;3133;43.214;27.906;2023-07-22T14:53:08;10.57;;;5.37;;
6199;SDS011;3133;43.214;27.906;2023-07-22T14:55:35;14.80;;;5.83;;
6199;SDS011;3133;43.214;27.906;2023-07-22T14:58:02;6.40;;;5.50;;
6199;SDS011;3133;43.214;27.906;2023-07-22T15:00:29;11.07;;;6.23;;
6199;SDS011;3133;43.214;27.906;2023-07-22T15:02:57;12.80;;;6.47;;
6199;SDS011;3133;43.214;27.906;2023-07-22T15:05:24;14.03;;;6.27;;
6199;SDS011;3133;43.214;27.906;2023-07-22T15:08:00;16.70;;;6.63;;
6199;SDS011;3133;43.214;27.906;2023-07-22T15:10:28;8.90;;;6.60;;
6199;SDS011;3133;43.214;27.906;2023-07-22T15:12:56;6.73;;;6.03;;
6199;SDS011;3133;43.214;27.906;2023-07-22T15:15:35;10.83;;;6.63;;
6199;SDS011;3133;43.214;27.906;2023-07-22T15:18:11;9.43;;;6.67;;
6199;SDS011;3133;43.214;27.906;2023-07-22T15:20:52;11.93;;;7.37;;
6199;SDS011;3133;43.214;27.906;2023-07-22T15:23:30;8.77;;;6.57;;
6199;SDS011;3133;43.214;27.906;2023-07-22T15:25:59;8.50;;;6.20;;
6199;SDS011;3133;43.214;27.906;2023-07-22T15:28:41;9.37;;;6.60;;
6199;SDS011;3133;43.214;27.906;2023-07-22T15:31:13;11.23;;;7.23;;
6199;SDS011;3133;43.214;27.906;2023-07-22T15:34:05;11.07;;;7.37;;
6199;SDS011;3133;43.214;27.906;2023-07-22T15:36:33;9.00;;;6.50;;